sensor_id;sensor_type;location;lat;lon;timestamp;temperature;humidity
25985;DHT22;40000;53.848;10.658;2022-10-16T00:00:14;13.30;99.90
25985;DHT22;40000;53.848;10.658;2022-10-16T00:05:15;13.40;99.90
25985;DHT22;40000;53.848;10.658;2022-10-16T00:10:16;13.30;99.90
25985;DHT22;40000;53.848;10.658;2022-10-16T00:15:17;13.40;99.90
25985;DHT22;40000;53.848;10.658;2022-10-16T00:20:18;13.40;99.90
25985;DHT22;40000;53.848;10.658;2022-10-16T00:25:19;13.40;99.90
25985;DHT22;40000;53.848;10.658;2022-10-16T00:30:19;13.30;99.90
25985;DHT22;40000;53.848;10.658;2022-10-16T00:35:20;13.30;99.90
25985;DHT22;40000;53.848;10.658;2022-10-16T00:40:21;13.20;99.90
25985;DHT22;40000;53.848;10.658;2022-10-16T00:45:21;13.20;99.90
25985;DHT22;40000;53.848;10.658;2022-10-16T00:50:30;13.10;99.90
25985;DHT22;40000;53.848;10.658;2022-10-16T00:55:32;13.10;99.90
25985;DHT22;40000;53.848;10.658;2022-10-16T01:00:33;13.00;99.90
25985;DHT22;40000;53.848;10.658;2022-10-16T01:05:54;13.00;99.90
25985;DHT22;40000;53.848;10.658;2022-10-16T01:11:26;12.90;99.90
25985;DHT22;40000;53.848;10.658;2022-10-16T01:16:44;12.90;99.90
25985;DHT22;40000;53.848;10.658;2022-10-16T01:21:51;12.80;99.90
25985;DHT22;40000;53.848;10.658;2022-10-16T01:27:34;12.80;99.90
25985;DHT22;40000;53.848;10.658;2022-10-16T01:38:19;12.70;99.90
25985;DHT22;40000;53.848;10.658;2022-10-16T01:43:31;12.70;99.90
25985;DHT22;40000;53.848;10.658;2022-10-16T01:48:36;12.60;99.90
25985;DHT22;40000;53.848;10.658;2022-10-16T01:53:38;12.70;99.90
25985;DHT22;40000;53.848;10.658;2022-10-16T01:58:45;12.60;99.90
25985;DHT22;40000;53.848;10.658;2022-10-16T02:03:52;12.60;99.90
25985;DHT22;40000;53.848;10.658;2022-10-16T02:08:58;12.60;99.90
25985;DHT22;40000;53.848;10.658;2022-10-16T02:14:03;12.50;99.90
25985;DHT22;40000;53.848;10.658;2022-10-16T02:19:06;12.50;99.90
25985;DHT22;40000;53.848;10.658;2022-10-16T02:30:44;12.50;99.90
25985;DHT22;40000;53.848;10.658;2022-10-16T02:35:33;12.40;99.90
25985;DHT22;40000;53.848;10.658;2022-10-16T02:40:35;12.40;99.90
25985;DHT22;40000;53.848;10.658;2022-10-16T02:45:36;12.40;99.90
25985;DHT22;40000;53.848;10.658;2022-10-16T02:50:37;12.40;99.90
25985;DHT22;40000;53.848;10.658;2022-10-16T02:55:38;12.30;99.90
25985;DHT22;40000;53.848;10.658;2022-10-16T03:00:39;12.30;99.90
25985;DHT22;40000;53.848;10.658;2022-10-16T03:05:39;12.20;99.90
25985;DHT22;40000;53.848;10.658;2022-10-16T03:10:41;12.10;99.90
25985;DHT22;40000;53.848;10.658;2022-10-16T03:15:43;12.10;99.90
25985;DHT22;40000;53.848;10.658;2022-10-16T03:20:44;12.10;99.90
25985;DHT22;40000;53.848;10.658;2022-10-16T03:25:44;12.00;99.90
25985;DHT22;40000;53.848;10.658;2022-10-16T03:30:45;12.00;99.90
25985;DHT22;40000;53.848;10.658;2022-10-16T03:35:51;11.90;99.90
25985;DHT22;40000;53.848;10.658;2022-10-16T03:40:53;11.80;99.90
25985;DHT22;40000;53.848;10.658;2022-10-16T03:45:54;11.80;99.90
25985;DHT22;40000;53.848;10.658;2022-10-16T03:50:56;11.70;99.90
25985;DHT22;40000;53.848;10.658;2022-10-16T03:55:57;11.70;99.90
25985;DHT22;40000;53.848;10.658;2022-10-16T04:00:59;11.60;99.90
25985;DHT22;40000;53.848;10.658;2022-10-16T04:06:00;11.60;99.90
25985;DHT22;40000;53.848;10.658;2022-10-16T04:11:01;11.50;99.90
25985;DHT22;40000;53.848;10.658;2022-10-16T04:16:02;11.60;99.90
25985;DHT22;40000;53.848;10.658;2022-10-16T04:21:05;11.50;99.90
25985;DHT22;40000;53.848;10.658;2022-10-16T04:26:07;11.50;99.90
25985;DHT22;40000;53.848;10.658;2022-10-16T04:31:08;11.50;99.90
25985;DHT22;40000;53.848;10.658;2022-10-16T04:36:09;11.50;99.90
25985;DHT22;40000;53.848;10.658;2022-10-16T04:41:10;11.50;99.90
25985;DHT22;40000;53.848;10.658;2022-10-16T04:46:11;11.50;99.90
25985;DHT22;40000;53.848;10.658;2022-10-16T04:51:13;11.50;99.90
25985;DHT22;40000;53.848;10.658;2022-10-16T04:56:14;11.60;99.90
25985;DHT22;40000;53.848;10.658;2022-10-16T05:01:16;11.50;99.90
25985;DHT22;40000;53.848;10.658;2022-10-16T05:06:17;11.50;99.90
25985;DHT22;40000;53.848;10.658;2022-10-16T05:11:18;11.40;99.90
25985;DHT22;40000;53.848;10.658;2022-10-16T05:16:19;11.30;99.90
25985;DHT22;40000;53.848;10.658;2022-10-16T05:21:20;11.30;99.90
25985;DHT22;40000;53.848;10.658;2022-10-16T05:26:21;11.30;99.90
25985;DHT22;40000;53.848;10.658;2022-10-16T05:31:22;11.20;99.90
25985;DHT22;40000;53.848;10.658;2022-10-16T05:36:22;11.10;99.90
25985;DHT22;40000;53.848;10.658;2022-10-16T05:41:24;11.20;99.90
25985;DHT22;40000;53.848;10.658;2022-10-16T05:46:26;11.10;99.90
25985;DHT22;40000;53.848;10.658;2022-10-16T05:51:27;11.10;99.90
25985;DHT22;40000;53.848;10.658;2022-10-16T05:56:27;11.10;99.90
25985;DHT22;40000;53.848;10.658;2022-10-16T06:01:28;11.10;99.90
25985;DHT22;40000;53.848;10.658;2022-10-16T06:06:29;11.20;99.90
25985;DHT22;40000;53.848;10.658;2022-10-16T06:11:32;11.20;99.90
25985;DHT22;40000;53.848;10.658;2022-10-16T06:16:35;11.20;99.90
25985;DHT22;40000;53.848;10.658;2022-10-16T06:21:36;11.30;99.90
25985;DHT22;40000;53.848;10.658;2022-10-16T06:26:37;11.40;99.90
25985;DHT22;40000;53.848;10.658;2022-10-16T06:31:38;11.50;99.90
25985;DHT22;40000;53.848;10.658;2022-10-16T06:36:39;11.60;99.90
25985;DHT22;40000;53.848;10.658;2022-10-16T06:41:41;11.60;99.90
25985;DHT22;40000;53.848;10.658;2022-10-16T06:46:42;11.70;99.90
25985;DHT22;40000;53.848;10.658;2022-10-16T06:51:42;11.80;99.90
25985;DHT22;40000;53.848;10.658;2022-10-16T06:56:43;11.80;99.90
25985;DHT22;40000;53.848;10.658;2022-10-16T07:01:44;11.90;99.90
25985;DHT22;40000;53.848;10.658;2022-10-16T07:06:45;12.00;99.90
25985;DHT22;40000;53.848;10.658;2022-10-16T07:11:46;12.10;99.90
25985;DHT22;40000;53.848;10.658;2022-10-16T07:16:47;12.30;99.90
25985;DHT22;40000;53.848;10.658;2022-10-16T07:21:48;12.40;99.90
25985;DHT22;40000;53.848;10.658;2022-10-16T07:26:49;12.50;99.90
25985;DHT22;40000;53.848;10.658;2022-10-16T07:31:49;12.70;99.90
25985;DHT22;40000;53.848;10.658;2022-10-16T07:36:50;12.90;99.90
25985;DHT22;40000;53.848;10.658;2022-10-16T07:41:51;13.20;99.90
25985;DHT22;40000;53.848;10.658;2022-10-16T07:46:52;13.50;99.90
25985;DHT22;40000;53.848;10.658;2022-10-16T07:51:52;13.90;99.90
25985;DHT22;40000;53.848;10.658;2022-10-16T07:56:53;14.30;99.90
25985;DHT22;40000;53.848;10.658;2022-10-16T08:01:54;14.50;99.90
25985;DHT22;40000;53.848;10.658;2022-10-16T08:06:54;14.50;99.90
25985;DHT22;40000;53.848;10.658;2022-10-16T08:11:55;14.70;99.90
25985;DHT22;40000;53.848;10.658;2022-10-16T08:16:56;14.80;99.90
25985;DHT22;40000;53.848;10.658;2022-10-16T08:21:56;14.80;99.90
25985;DHT22;40000;53.848;10.658;2022-10-16T08:26:57;14.70;99.90
25985;DHT22;40000;53.848;10.658;2022-10-16T08:31:58;14.60;99.90
25985;DHT22;40000;53.848;10.658;2022-10-16T08:36:59;14.60;99.90
25985;DHT22;40000;53.848;10.658;2022-10-16T08:42:06;14.70;99.90
25985;DHT22;40000;53.848;10.658;2022-10-16T08:47:41;14.80;99.90
25985;DHT22;40000;53.848;10.658;2022-10-16T08:52:49;14.90;99.90
25985;DHT22;40000;53.848;10.658;2022-10-16T08:57:50;15.00;99.90
25985;DHT22;40000;53.848;10.658;2022-10-16T09:13:26;15.50;99.90
25985;DHT22;40000;53.848;10.658;2022-10-16T09:18:47;15.60;99.90
25985;DHT22;40000;53.848;10.658;2022-10-16T09:23:52;15.70;99.90
25985;DHT22;40000;53.848;10.658;2022-10-16T09:28:54;15.90;99.90
25985;DHT22;40000;53.848;10.658;2022-10-16T09:33:58;16.00;99.90
25985;DHT22;40000;53.848;10.658;2022-10-16T09:39:08;16.10;99.90
25985;DHT22;40000;53.848;10.658;2022-10-16T09:44:28;16.30;99.90
25985;DHT22;40000;53.848;10.658;2022-10-16T09:49:30;16.50;99.90
25985;DHT22;40000;53.848;10.658;2022-10-16T09:54:31;16.60;99.90
25985;DHT22;40000;53.848;10.658;2022-10-16T09:59:32;16.60;99.90
25985;DHT22;40000;53.848;10.658;2022-10-16T10:04:52;16.60;99.90
25985;DHT22;40000;53.848;10.658;2022-10-16T10:09:57;16.70;99.90
25985;DHT22;40000;53.848;10.658;2022-10-16T10:15:04;16.80;99.90
25985;DHT22;40000;53.848;10.658;2022-10-16T10:25:48;17.00;99.90
25985;DHT22;40000;53.848;10.658;2022-10-16T10:31:33;17.10;99.90
25985;DHT22;40000;53.848;10.658;2022-10-16T10:36:39;17.30;99.90
25985;DHT22;40000;53.848;10.658;2022-10-16T10:52:34;17.50;99.90
25985;DHT22;40000;53.848;10.658;2022-10-16T10:57:46;17.60;99.90
25985;DHT22;40000;53.848;10.658;2022-10-16T11:03:15;17.80;99.90
25985;DHT22;40000;53.848;10.658;2022-10-16T11:08:36;18.00;99.90
25985;DHT22;40000;53.848;10.658;2022-10-16T11:19:14;18.20;99.90
25985;DHT22;40000;53.848;10.658;2022-10-16T11:30:25;18.20;99.90
25985;DHT22;40000;53.848;10.658;2022-10-16T11:40:43;18.30;99.90
25985;DHT22;40000;53.848;10.658;2022-10-16T11:46:01;18.20;99.90
25985;DHT22;40000;53.848;10.658;2022-10-16T11:51:14;18.20;99.90
25985;DHT22;40000;53.848;10.658;2022-10-16T11:56:20;18.50;99.90
25985;DHT22;40000;53.848;10.658;2022-10-16T12:01:46;18.70;99.90
25985;DHT22;40000;53.848;10.658;2022-10-16T12:07:17;18.60;99.90
25985;DHT22;40000;53.848;10.658;2022-10-16T12:17:39;18.40;99.90
25985;DHT22;40000;53.848;10.658;2022-10-16T12:23:06;18.40;99.90
25985;DHT22;40000;53.848;10.658;2022-10-16T12:28:22;18.30;99.90
25985;DHT22;40000;53.848;10.658;2022-10-16T12:33:30;18.30;99.90
25985;DHT22;40000;53.848;10.658;2022-10-16T12:43:52;18.40;99.90
25985;DHT22;40000;53.848;10.658;2022-10-16T12:48:52;18.20;99.90
25985;DHT22;40000;53.848;10.658;2022-10-16T12:54:24;18.20;99.90
25985;DHT22;40000;53.848;10.658;2022-10-16T12:59:43;18.20;99.90
25985;DHT22;40000;53.848;10.658;2022-10-16T13:22:27;19.10;99.90
25985;DHT22;40000;53.848;10.658;2022-10-16T13:28:02;19.00;99.90
25985;DHT22;40000;53.848;10.658;2022-10-16T13:33:10;19.00;99.90
25985;DHT22;40000;53.848;10.658;2022-10-16T13:38:17;19.00;99.90
25985;DHT22;40000;53.848;10.658;2022-10-16T13:43:33;18.70;99.90
25985;DHT22;40000;53.848;10.658;2022-10-16T13:48:36;18.40;99.90
25985;DHT22;40000;53.848;10.658;2022-10-16T13:53:37;18.00;99.90
25985;DHT22;40000;53.848;10.658;2022-10-16T13:58:37;17.90;99.90
25985;DHT22;40000;53.848;10.658;2022-10-16T14:03:38;17.70;99.90
25985;DHT22;40000;53.848;10.658;2022-10-16T14:08:43;17.80;99.90
25985;DHT22;40000;53.848;10.658;2022-10-16T14:13:46;18.10;99.90
25985;DHT22;40000;53.848;10.658;2022-10-16T14:19:03;18.20;99.90
25985;DHT22;40000;53.848;10.658;2022-10-16T14:29:31;18.20;99.90
25985;DHT22;40000;53.848;10.658;2022-10-16T14:34:34;18.40;99.90
25985;DHT22;40000;53.848;10.658;2022-10-16T14:39:36;18.30;99.90
25985;DHT22;40000;53.848;10.658;2022-10-16T14:44:39;18.10;99.90
25985;DHT22;40000;53.848;10.658;2022-10-16T14:49:42;17.80;99.90
25985;DHT22;40000;53.848;10.658;2022-10-16T14:54:43;17.60;99.90
25985;DHT22;40000;53.848;10.658;2022-10-16T14:59:45;17.50;99.90
25985;DHT22;40000;53.848;10.658;2022-10-16T15:04:46;17.50;99.90
25985;DHT22;40000;53.848;10.658;2022-10-16T15:09:47;17.40;99.90
25985;DHT22;40000;53.848;10.658;2022-10-16T15:14:48;17.50;99.90
25985;DHT22;40000;53.848;10.658;2022-10-16T15:19:48;17.50;99.90
25985;DHT22;40000;53.848;10.658;2022-10-16T15:24:49;17.20;99.90
25985;DHT22;40000;53.848;10.658;2022-10-16T15:29:50;16.90;99.90
25985;DHT22;40000;53.848;10.658;2022-10-16T15:34:50;16.70;99.90
25985;DHT22;40000;53.848;10.658;2022-10-16T15:39:51;16.60;99.90
25985;DHT22;40000;53.848;10.658;2022-10-16T15:44:52;16.40;99.90
25985;DHT22;40000;53.848;10.658;2022-10-16T15:49:52;16.20;99.90
25985;DHT22;40000;53.848;10.658;2022-10-16T15:54:53;16.00;99.90
25985;DHT22;40000;53.848;10.658;2022-10-16T15:59:54;15.90;99.90
25985;DHT22;40000;53.848;10.658;2022-10-16T16:04:54;15.60;99.90
25985;DHT22;40000;53.848;10.658;2022-10-16T16:09:55;15.30;99.90
25985;DHT22;40000;53.848;10.658;2022-10-16T16:14:56;15.00;99.90
25985;DHT22;40000;53.848;10.658;2022-10-16T16:19:56;14.80;99.90
25985;DHT22;40000;53.848;10.658;2022-10-16T16:24:57;14.60;99.90
25985;DHT22;40000;53.848;10.658;2022-10-16T16:29:58;14.50;99.90
25985;DHT22;40000;53.848;10.658;2022-10-16T16:34:59;14.20;99.90
25985;DHT22;40000;53.848;10.658;2022-10-16T16:39:59;14.10;99.90
25985;DHT22;40000;53.848;10.658;2022-10-16T16:45:00;13.90;99.90
25985;DHT22;40000;53.848;10.658;2022-10-16T16:50:01;13.60;99.90
25985;DHT22;40000;53.848;10.658;2022-10-16T16:55:05;13.40;99.90
25985;DHT22;40000;53.848;10.658;2022-10-16T17:00:06;13.20;99.90
25985;DHT22;40000;53.848;10.658;2022-10-16T17:05:08;13.00;99.90
25985;DHT22;40000;53.848;10.658;2022-10-16T17:10:09;12.80;99.90
25985;DHT22;40000;53.848;10.658;2022-10-16T17:15:10;12.60;99.90
25985;DHT22;40000;53.848;10.658;2022-10-16T17:20:11;12.40;99.90
25985;DHT22;40000;53.848;10.658;2022-10-16T17:25:11;12.30;99.90
25985;DHT22;40000;53.848;10.658;2022-10-16T17:30:12;12.10;99.90
25985;DHT22;40000;53.848;10.658;2022-10-16T17:35:13;12.00;99.90
25985;DHT22;40000;53.848;10.658;2022-10-16T17:40:13;11.80;99.90
25985;DHT22;40000;53.848;10.658;2022-10-16T17:45:14;11.60;99.90
25985;DHT22;40000;53.848;10.658;2022-10-16T17:50:15;11.50;99.90
25985;DHT22;40000;53.848;10.658;2022-10-16T17:55:16;11.30;99.90
25985;DHT22;40000;53.848;10.658;2022-10-16T18:00:17;11.10;99.90
25985;DHT22;40000;53.848;10.658;2022-10-16T18:05:18;11.00;99.90
25985;DHT22;40000;53.848;10.658;2022-10-16T18:10:19;10.80;99.90
25985;DHT22;40000;53.848;10.658;2022-10-16T18:15:20;10.70;99.90
25985;DHT22;40000;53.848;10.658;2022-10-16T18:20:20;10.60;99.90
25985;DHT22;40000;53.848;10.658;2022-10-16T18:25:21;10.40;99.90
25985;DHT22;40000;53.848;10.658;2022-10-16T18:30:22;10.40;99.90
25985;DHT22;40000;53.848;10.658;2022-10-16T18:35:22;10.30;99.90
25985;DHT22;40000;53.848;10.658;2022-10-16T18:40:23;10.20;99.90
25985;DHT22;40000;53.848;10.658;2022-10-16T18:45:23;10.30;99.90
25985;DHT22;40000;53.848;10.658;2022-10-16T18:50:24;10.30;99.90
25985;DHT22;40000;53.848;10.658;2022-10-16T18:55:25;10.10;99.90
25985;DHT22;40000;53.848;10.658;2022-10-16T19:00:27;10.00;99.90
25985;DHT22;40000;53.848;10.658;2022-10-16T19:05:27;9.90;99.90
25985;DHT22;40000;53.848;10.658;2022-10-16T19:10:28;9.90;99.90
25985;DHT22;40000;53.848;10.658;2022-10-16T19:15:30;9.80;99.90
25985;DHT22;40000;53.848;10.658;2022-10-16T19:20:31;9.80;99.90
25985;DHT22;40000;53.848;10.658;2022-10-16T19:25:36;9.70;99.90
25985;DHT22;40000;53.848;10.658;2022-10-16T19:30:39;9.70;99.90
25985;DHT22;40000;53.848;10.658;2022-10-16T19:35:41;9.60;99.90
25985;DHT22;40000;53.848;10.658;2022-10-16T19:40:42;9.50;99.90
25985;DHT22;40000;53.848;10.658;2022-10-16T19:45:43;9.40;99.90
25985;DHT22;40000;53.848;10.658;2022-10-16T19:50:44;9.20;99.90
25985;DHT22;40000;53.848;10.658;2022-10-16T19:55:45;9.10;99.90
25985;DHT22;40000;53.848;10.658;2022-10-16T20:00:46;9.10;99.90
25985;DHT22;40000;53.848;10.658;2022-10-16T20:05:55;9.10;99.90
25985;DHT22;40000;53.848;10.658;2022-10-16T20:10:56;9.20;99.90
25985;DHT22;40000;53.848;10.658;2022-10-16T20:15:57;9.10;99.90
25985;DHT22;40000;53.848;10.658;2022-10-16T20:20:58;9.00;99.90
25985;DHT22;40000;53.848;10.658;2022-10-16T20:25:59;8.90;99.90
25985;DHT22;40000;53.848;10.658;2022-10-16T20:31:06;8.90;99.90
25985;DHT22;40000;53.848;10.658;2022-10-16T20:36:13;8.80;99.90
25985;DHT22;40000;53.848;10.658;2022-10-16T20:41:15;8.90;99.90
25985;DHT22;40000;53.848;10.658;2022-10-16T20:46:22;8.90;99.90
25985;DHT22;40000;53.848;10.658;2022-10-16T20:51:27;9.00;99.90
25985;DHT22;40000;53.848;10.658;2022-10-16T20:56:31;8.90;99.90
25985;DHT22;40000;53.848;10.658;2022-10-16T21:01:34;8.90;99.90
25985;DHT22;40000;53.848;10.658;2022-10-16T21:06:37;8.90;99.90
25985;DHT22;40000;53.848;10.658;2022-10-16T21:11:38;8.90;99.90
25985;DHT22;40000;53.848;10.658;2022-10-16T21:16:39;8.90;99.90
25985;DHT22;40000;53.848;10.658;2022-10-16T21:21:40;8.90;99.90
25985;DHT22;40000;53.848;10.658;2022-10-16T21:26:40;8.90;99.90
25985;DHT22;40000;53.848;10.658;2022-10-16T21:31:42;8.90;99.90
25985;DHT22;40000;53.848;10.658;2022-10-16T21:36:42;9.00;99.90
25985;DHT22;40000;53.848;10.658;2022-10-16T21:41:45;8.90;99.90
25985;DHT22;40000;53.848;10.658;2022-10-16T21:46:49;8.90;99.90
25985;DHT22;40000;53.848;10.658;2022-10-16T21:51:50;8.90;99.90
25985;DHT22;40000;53.848;10.658;2022-10-16T21:56:51;8.80;99.90
25985;DHT22;40000;53.848;10.658;2022-10-16T22:01:52;8.80;99.90
25985;DHT22;40000;53.848;10.658;2022-10-16T22:06:53;8.70;99.90
25985;DHT22;40000;53.848;10.658;2022-10-16T22:11:54;8.70;99.90
25985;DHT22;40000;53.848;10.658;2022-10-16T22:16:54;8.70;99.90
25985;DHT22;40000;53.848;10.658;2022-10-16T22:21:55;8.70;99.90
25985;DHT22;40000;53.848;10.658;2022-10-16T22:26:56;8.80;99.90
25985;DHT22;40000;53.848;10.658;2022-10-16T22:31:57;8.90;99.90
25985;DHT22;40000;53.848;10.658;2022-10-16T22:36:57;8.90;99.90
25985;DHT22;40000;53.848;10.658;2022-10-16T22:41:58;8.90;99.90
25985;DHT22;40000;53.848;10.658;2022-10-16T22:46:59;9.00;99.90
25985;DHT22;40000;53.848;10.658;2022-10-16T22:51:59;9.00;99.90
25985;DHT22;40000;53.848;10.658;2022-10-16T22:57:00;9.00;99.90
25985;DHT22;40000;53.848;10.658;2022-10-16T23:02:01;9.00;99.90
25985;DHT22;40000;53.848;10.658;2022-10-16T23:07:01;9.00;99.90
25985;DHT22;40000;53.848;10.658;2022-10-16T23:12:02;9.10;99.90
25985;DHT22;40000;53.848;10.658;2022-10-16T23:17:03;9.20;99.90
25985;DHT22;40000;53.848;10.658;2022-10-16T23:22:04;9.20;99.90
25985;DHT22;40000;53.848;10.658;2022-10-16T23:27:04;9.20;99.90
25985;DHT22;40000;53.848;10.658;2022-10-16T23:32:05;9.20;99.90
25985;DHT22;40000;53.848;10.658;2022-10-16T23:37:06;9.20;99.90
25985;DHT22;40000;53.848;10.658;2022-10-16T23:42:07;9.20;99.90
25985;DHT22;40000;53.848;10.658;2022-10-16T23:47:07;9.30;99.90
25985;DHT22;40000;53.848;10.658;2022-10-16T23:52:08;9.50;99.90
25985;DHT22;40000;53.848;10.658;2022-10-16T23:57:09;9.60;99.90
